Portada
METAR-TAF:

METAR-TAF

Aeropuertos :

Aeropuerto Internacional de La Chinita

Maracaibo, Venezuela

latitud: 10-34N, longitud: 071-44W, altitud: 66 m

Observación

El informe se hizo hace 36 minutos, a las 01:00 UTC
Viento 4 kt del noreste
Temperatura 28°C
Humedad 79%
Presión 1012 hPa
Visibilidad 10 km o más
Nubes dispersas a una altura de 1300 ft

METAR: SVMC 230100Z 05004KT 9999 SCT013 28/24 Q1012

Hora: 21:36 (01:36 UTC)

Pronóstico

El informe se hizo hace 3 horas y 36 minutos, a las 22:00 UTC
Pronóstico válido del 23 a las 00 UTC al 24 a las 00 UTC
Viento 7 kt del norte
Visibilidad 10 km o más
Nubes dispersas a una altura de 1600 ft
Evolucionando progresivamente
del 23 a las 01 UTC al 23 a las 05 UTC
Viento 2 kt del sur
Cielo nuboso a una altura de 1600 ft

TAF: SVMC 222200Z 2300/2400 36007KT 9999 SCT016 TX34/18Z TN25/08Z BECMG 2301/2305 18002KT BKN016

Observaciones y pronósticos meteorológicos de más de 4000 aeropuertos (mensajes METAR y TAF).

Los puntos amarillos y rojos representan las estaciones disponibles.

Ponga el ratón en el punto deseado para ver el nombre de la estación.

Haga clic para ver las observaciones y los pronósticos meteorológicos.

Para cambiar el mapa : haga clic en los botones verdes con una cruz de color negro para hacer un zoom, en el botón verde con un guión para alejar o en las flechas verdes para mapas adyacentes.


METAR-TAF: